Time;durP1;ratioP1;P1;durP2;ratioP2;P2;SDS_P1;SDS_P2;PMS_P1;PMS_P2;Temp;Humidity;BMP_temperature;BMP_pressure;BME280_temperature;BME280_humidity;BME280_pressure;Samples;Min_cycle;Max_cycle;Signal;HPM_P1;HPM_P2
2022/05/10 00:01:24;;;;;;;6.10;4.03;;;12.90;99.90;;;;;;5052353;28;20045;-58
2022/05/10 00:03:51;;;;;;;5.80;4.30;;;12.90;99.90;;;;;;5052231;28;20060;-54
2022/05/10 00:06:17;;;;;;;5.40;4.63;;;12.80;99.90;;;;;;5051933;28;20111;-59
2022/05/10 00:08:44;;;;;;;7.75;4.47;;;12.70;99.90;;;;;;5051754;28;20029;-58
2022/05/10 00:11:10;;;;;;;8.02;4.35;;;12.70;99.90;;;;;;5052127;28;20028;-59
2022/05/10 00:13:36;;;;;;;4.28;3.67;;;12.60;99.90;;;;;;5052127;28;20082;-59
2022/05/10 00:16:04;;;;;;;7.38;3.80;;;12.70;99.90;;;;;;5053219;28;20025;-55
2022/05/10 00:18:30;;;;;;;9.00;4.53;;;12.60;99.90;;;;;;5053171;28;20025;-54
2022/05/10 00:20:56;;;;;;;6.22;4.43;;;12.60;99.90;;;;;;5051782;28;20021;-57
2022/05/10 00:23:22;;;;;;;6.63;4.45;;;12.60;99.90;;;;;;5052520;28;20021;-57
2022/05/10 00:25:48;;;;;;;8.35;4.32;;;12.70;99.90;;;;;;5051901;28;20144;-58
2022/05/10 00:28:13;;;;;;;6.85;4.85;;;12.60;99.90;;;;;;5051889;28;20085;-58
2022/05/10 00:30:40;;;;;;;6.70;4.15;;;12.60;99.90;;;;;;5052672;28;20025;-59
2022/05/10 00:33:06;;;;;;;8.82;5.22;;;12.60;99.90;;;;;;5052801;28;20028;-57
2022/05/10 00:35:34;;;;;;;5.90;4.63;;;12.60;99.90;;;;;;5051472;28;20106;-56
2022/05/10 00:38:03;;;;;;;5.72;4.15;;;12.60;99.90;;;;;;5051417;28;20117;-58
2022/05/10 00:40:33;;;;;;;8.40;5.13;;;12.50;99.90;;;;;;5051464;28;20025;-58
2022/05/10 00:43:18;;;;;;;4.85;4.28;;;12.50;99.90;;;;;;5052771;28;20075;-57
2022/05/10 00:45:58;;;;;;;8.55;5.30;;;12.40;99.90;;;;;;5052820;28;20025;-58
2022/05/10 00:48:47;;;;;;;9.73;4.45;;;12.40;99.90;;;;;;5055347;28;20041;-59
2022/05/10 00:51:24;;;;;;;6.65;3.70;;;12.40;99.90;;;;;;5055810;28;20128;-54
2022/05/10 00:54:08;;;;;;;5.03;3.67;;;12.30;99.90;;;;;;5055727;28;20040;-57
2022/05/10 00:56:50;;;;;;;6.53;4.10;;;12.30;99.90;;;;;;5055211;28;20074;-57
2022/05/10 00:59:28;;;;;;;6.43;4.70;;;12.30;99.90;;;;;;5055272;28;20021;-58
2022/05/10 01:01:59;;;;;;;6.28;4.55;;;12.30;99.90;;;;;;5056177;28;20426;-57
2022/05/10 01:04:40;;;;;;;6.20;4.85;;;12.30;99.90;;;;;;5056785;28;20068;-57
2022/05/10 01:07:24;;;;;;;5.70;4.28;;;12.20;99.90;;;;;;5055322;28;20053;-59
2022/05/10 01:09:54;;;;;;;6.50;4.55;;;12.30;99.90;;;;;;5055142;28;20050;-55
2022/05/10 01:12:39;;;;;;;6.70;5.07;;;12.20;99.90;;;;;;5055982;28;20021;-53
2022/05/10 01:15:16;;;;;;;5.95;4.57;;;12.20;99.90;;;;;;5054804;28;20024;-56
2022/05/10 01:17:43;;;;;;;6.88;4.88;;;12.20;99.90;;;;;;5055719;28;20021;-57
2022/05/10 01:20:10;;;;;;;6.13;4.22;;;12.20;99.90;;;;;;5055196;28;20035;-55
2022/05/10 01:23:01;;;;;;;8.45;5.15;;;12.10;99.90;;;;;;5056165;28;20078;-56
2022/05/10 01:25:48;;;;;;;7.03;4.07;;;12.00;99.90;;;;;;5056097;28;20056;-57
2022/05/10 01:28:30;;;;;;;7.82;4.50;;;12.00;99.90;;;;;;5056062;28;20036;-56
2022/05/10 01:30:57;;;;;;;;;;;12.00;99.90;;;;;;5056524;28;20021;-52
2022/05/10 01:33:29;;;;;;;5.20;4.15;;;12.00;99.90;;;;;;5054676;28;19910;-55
2022/05/10 01:36:00;;;;;;;8.35;5.03;;;12.00;99.90;;;;;;5056089;28;20053;-55
2022/05/10 01:38:37;;;;;;;5.70;4.78;;;12.00;99.90;;;;;;5054477;28;20036;-55
2022/05/10 01:41:16;;;;;;;6.60;4.60;;;12.00;99.90;;;;;;5055834;28;20024;-56
2022/05/10 01:43:57;;;;;;;6.43;4.55;;;11.90;99.90;;;;;;5054488;28;20028;-55
2022/05/10 01:46:30;;;;;;;12.05;4.70;;;11.90;99.90;;;;;;5055835;28;20029;-57
2022/05/10 01:49:19;;;;;;;5.50;4.57;;;11.80;99.90;;;;;;5054485;28;20032;-58
2022/05/10 01:52:14;;;;;;;9.52;4.72;;;11.80;99.90;;;;;;5054408;28;20021;-54
2022/05/10 01:54:39;;;;;;;7.57;5.03;;;11.80;99.90;;;;;;5048494;28;20043;-57
2022/05/10 01:57:09;;;;;;;7.53;5.15;;;11.80;99.90;;;;;;5054177;28;20021;-56
2022/05/10 01:59:35;;;;;;;5.95;4.90;;;11.70;99.90;;;;;;5053589;28;20048;-55
2022/05/10 02:02:02;;;;;;;8.55;4.55;;;11.70;99.90;;;;;;5054666;28;20468;-55
2022/05/10 02:04:33;;;;;;;9.90;4.57;;;11.60;99.90;;;;;;5054121;28;20021;-56
2022/05/10 02:07:07;;;;;;;8.30;5.10;;;11.70;99.90;;;;;;5055418;28;20032;-57
2022/05/10 02:09:48;;;;;;;5.93;4.47;;;11.80;99.90;;;;;;5054074;28;20040;-53
2022/05/10 02:12:19;;;;;;;5.50;4.53;;;11.70;99.90;;;;;;5055540;28;20063;-56
2022/05/10 02:15:26;;;;;;;6.03;4.05;;;11.70;99.90;;;;;;5055029;28;20029;-53
2022/05/10 02:18:04;;;;;;;6.05;4.70;;;11.60;99.90;;;;;;5046386;28;20029;-56
2022/05/10 02:21:16;;;;;;;6.13;4.50;;;11.60;99.90;;;;;;5055115;28;20059;-54
2022/05/10 02:24:04;;;;;;;9.48;5.50;;;11.60;99.90;;;;;;5050885;28;20112;-57
2022/05/10 02:26:41;;;;;;;8.25;5.50;;;11.50;99.90;;;;;;5055240;28;20033;-59
2022/05/10 02:29:45;;;;;;;8.43;5.40;;;11.30;99.90;;;;;;5055114;28;20091;-58
2022/05/10 02:35:14;;;;;;;9.63;5.85;;;11.30;99.90;;;;;;5055430;28;20079;-58
2022/05/10 02:37:40;;;;;;;8.30;5.32;;;11.30;99.90;;;;;;5053732;28;20063;-59
2022/05/10 02:40:06;;;;;;;9.63;5.57;;;11.30;99.90;;;;;;5054667;28;20114;-59
2022/05/10 02:42:32;;;;;;;10.95;6.07;;;11.30;99.90;;;;;;5053617;28;20025;-59
2022/05/10 02:44:58;;;;;;;7.00;5.40;;;11.20;99.90;;;;;;5054932;28;20033;-57
2022/05/10 02:47:40;;;;;;;7.35;5.35;;;11.20;99.90;;;;;;5054641;28;20029;-55
2022/05/10 02:50:31;;;;;;;9.90;5.18;;;11.20;99.90;;;;;;5053227;28;20032;-58
2022/05/10 02:52:56;;;;;;;8.23;5.78;;;11.30;99.90;;;;;;5045637;28;20041;-59
2022/05/10 02:55:28;;;;;;;6.10;5.07;;;11.40;99.90;;;;;;5054771;28;20032;-55
2022/05/10 02:57:55;;;;;;;;;;;11.30;99.90;;;;;;5053862;28;20048;-57
2022/05/10 03:00:23;;;;;;;9.98;5.53;;;11.30;99.90;;;;;;5054193;28;19911;-59
2022/05/10 03:02:55;;;;;;;7.55;5.30;;;11.30;99.90;;;;;;5053940;28;20117;-55
2022/05/10 03:05:20;;;;;;;7.93;6.15;;;11.20;99.90;;;;;;5054198;28;20044;-57
2022/05/10 03:07:46;;;;;;;7.85;5.18;;;11.20;99.90;;;;;;5052842;28;20021;-54
2022/05/10 03:10:12;;;;;;;8.73;4.85;;;11.20;99.90;;;;;;5054071;28;20017;-53
2022/05/10 03:12:37;;;;;;;8.50;5.22;;;11.20;99.90;;;;;;5052865;28;20082;-57
2022/05/10 03:15:05;;;;;;;7.65;4.75;;;11.10;99.90;;;;;;5054684;28;20044;-58
2022/05/10 03:17:30;;;;;;;9.68;5.63;;;11.20;99.90;;;;;;5052855;28;20025;-57
2022/05/10 03:19:56;;;;;;;8.75;5.55;;;11.20;99.90;;;;;;5053812;28;20543;-55
2022/05/10 03:22:22;;;;;;;10.05;5.78;;;11.10;99.90;;;;;;5052702;28;20021;-54
2022/05/10 03:24:47;;;;;;;8.55;5.65;;;11.20;99.90;;;;;;5053787;28;20021;-53
2022/05/10 03:27:13;;;;;;;9.07;5.68;;;11.10;99.90;;;;;;5052866;28;20542;-57
2022/05/10 03:29:40;;;;;;;8.60;5.55;;;11.10;99.90;;;;;;5052516;28;20017;-56
2022/05/10 03:32:06;;;;;;;13.40;6.18;;;11.00;99.90;;;;;;5052735;28;20021;-56
2022/05/10 03:37:16;;;;;;;8.80;5.97;;;11.00;99.90;;;;;;5053897;28;20063;-54
2022/05/10 03:39:42;;;;;;;12.10;4.97;;;11.00;99.90;;;;;;5053803;28;20048;-56
2022/05/10 03:42:09;;;;;;;9.93;6.13;;;11.00;99.90;;;;;;5053542;28;20017;-54
2022/05/10 03:44:35;;;;;;;8.77;5.53;;;11.00;99.90;;;;;;5052216;28;20067;-53
2022/05/10 03:47:01;;;;;;;7.43;5.68;;;10.90;99.90;;;;;;5052138;28;20104;-54
2022/05/10 03:49:27;;;;;;;13.05;5.85;;;10.80;99.90;;;;;;5052414;28;20464;-58
2022/05/10 03:51:56;;;;;;;12.77;5.97;;;10.80;99.90;;;;;;5052382;28;20059;-53
2022/05/10 03:54:23;;;;;;;10.45;5.70;;;10.70;99.90;;;;;;5052190;28;20178;-58
2022/05/10 03:56:49;;;;;;;7.82;5.70;;;10.80;99.90;;;;;;5052041;28;20051;-58
2022/05/10 03:59:14;;;;;;;8.82;5.32;;;10.80;99.90;;;;;;5051930;28;20020;-56
2022/05/10 04:01:40;;;;;;;9.05;6.03;;;10.90;99.90;;;;;;5053342;28;20033;-55
2022/05/10 04:04:05;;;;;;;9.75;6.18;;;11.00;99.90;;;;;;5052122;28;20024;-55
2022/05/10 04:06:31;;;;;;;9.48;5.90;;;11.10;99.90;;;;;;5052005;28;20029;-56
2022/05/10 04:08:57;;;;;;;8.90;5.90;;;11.10;99.90;;;;;;5052858;28;20051;-54
2022/05/10 04:11:23;;;;;;;9.13;5.65;;;11.20;99.90;;;;;;5052081;28;20032;-58
2022/05/10 04:13:48;;;;;;;8.10;5.68;;;11.20;99.90;;;;;;5051911;28;20037;-58
2022/05/10 04:16:14;;;;;;;8.05;4.97;;;11.30;99.90;;;;;;5052063;28;20029;-59
2022/05/10 04:18:40;;;;;;;7.07;5.47;;;11.40;99.90;;;;;;5053174;28;20021;-58
2022/05/10 04:21:05;;;;;;;13.65;5.38;;;11.50;99.90;;;;;;5052195;28;20020;-58
2022/05/10 04:23:31;;;;;;;7.43;5.32;;;11.70;99.90;;;;;;5052543;28;20024;-59
2022/05/10 04:26:09;;;;;;;8.20;5.65;;;11.80;99.90;;;;;;5053194;28;20024;-57
2022/05/10 04:28:36;;;;;;;9.77;5.47;;;11.90;99.90;;;;;;5052981;28;20060;-59
2022/05/10 04:31:02;;;;;;;8.73;5.65;;;12.00;99.90;;;;;;5051720;28;20021;-58
2022/05/10 04:33:27;;;;;;;10.10;5.18;;;12.00;99.90;;;;;;5052062;28;20095;-58
2022/05/10 04:35:53;;;;;;;6.90;4.95;;;12.10;99.90;;;;;;5051919;28;20033;-58
2022/05/10 04:38:19;;;;;;;7.18;4.85;;;12.20;99.90;;;;;;5053176;28;20365;-58
2022/05/10 04:43:30;;;;;;;7.68;5.50;;;12.40;99.90;;;;;;5053621;28;20055;-59
2022/05/10 04:45:55;;;;;;;8.32;5.28;;;12.50;99.90;;;;;;5051788;28;20107;-59
2022/05/10 04:48:21;;;;;;;6.82;5.28;;;12.60;99.90;;;;;;5053179;28;20025;-57
2022/05/10 04:50:48;;;;;;;7.00;5.10;;;12.60;99.90;;;;;;5053263;28;20075;-58
2022/05/10 04:53:13;;;;;;;6.43;5.32;;;12.80;99.90;;;;;;5053139;28;20026;-59
2022/05/10 04:55:39;;;;;;;7.97;5.32;;;12.90;99.90;;;;;;5051933;28;20083;-59
2022/05/10 04:58:05;;;;;;;8.73;5.35;;;13.00;99.90;;;;;;5051878;28;20021;-59
2022/05/10 05:00:31;;;;;;;8.77;5.38;;;13.00;99.90;;;;;;5052794;28;20021;-57
2022/05/10 05:02:56;;;;;;;10.10;5.57;;;13.20;99.90;;;;;;5051373;28;20032;-56
2022/05/10 05:05:22;;;;;;;10.20;5.50;;;13.30;99.90;;;;;;5051799;28;20029;-58
2022/05/10 05:07:48;;;;;;;8.07;4.68;;;13.50;99.90;;;;;;5051627;28;20471;-57
2022/05/10 05:10:14;;;;;;;7.70;5.22;;;13.70;99.90;;;;;;5051483;28;20078;-59
2022/05/10 05:12:39;;;;;;;7.70;5.32;;;13.80;99.90;;;;;;5052696;28;20029;-56
2022/05/10 05:15:09;;;;;;;10.40;5.38;;;14.00;99.90;;;;;;5051950;28;20036;-59
2022/05/10 05:17:35;;;;;;;9.65;5.40;;;14.20;99.90;;;;;;5052553;28;20027;-53
2022/05/10 05:20:01;;;;;;;7.78;4.45;;;14.40;99.90;;;;;;5051471;28;20387;-51
2022/05/10 05:22:27;;;;;;;9.40;4.82;;;14.70;99.90;;;;;;5052692;28;20017;-53
2022/05/10 05:24:53;;;;;;;10.15;4.95;;;14.90;99.90;;;;;;5052350;28;20021;-53
2022/05/10 05:27:19;;;;;;;6.78;4.72;;;15.20;99.90;;;;;;5052691;28;20107;-53
2022/05/10 05:29:46;;;;;;;7.10;4.35;;;15.40;99.90;;;;;;5052617;28;20028;-56
2022/05/10 05:32:12;;;;;;;6.63;4.57;;;15.70;99.90;;;;;;5052966;28;20029;-56
2022/05/10 05:34:37;;;;;;;5.80;4.28;;;16.00;99.90;;;;;;5052939;28;20024;-56
2022/05/10 05:39:48;;;;;;;7.88;4.70;;;16.70;99.90;;;;;;5056587;28;20044;-50
2022/05/10 05:42:14;;;;;;;6.70;4.85;;;17.00;99.90;;;;;;5054908;28;20025;-51
2022/05/10 05:44:40;;;;;;;6.05;5.07;;;17.30;99.90;;;;;;5055738;28;20025;-49
2022/05/10 05:47:14;;;;;;;9.02;5.22;;;17.70;99.90;;;;;;5056056;28;20021;-52
2022/05/10 05:49:39;;;;;;;9.35;4.70;;;18.00;99.90;;;;;;5056003;28;20096;-49
2022/05/10 05:52:05;;;;;;;5.70;4.70;;;18.20;99.90;;;;;;5054657;28;20075;-50
2022/05/10 05:54:34;;;;;;;5.68;4.47;;;18.30;99.90;;;;;;5056192;28;20032;-49
2022/05/10 05:57:04;;;;;;;7.95;5.43;;;18.40;99.90;;;;;;5056439;28;20025;-51
2022/05/10 05:59:30;;;;;;;7.90;4.80;;;18.70;99.90;;;;;;5054585;28;20024;-52
2022/05/10 06:01:56;;;;;;;8.63;4.97;;;19.00;99.90;;;;;;5054540;28;20263;-52
2022/05/10 06:04:23;;;;;;;6.32;4.68;;;19.00;99.90;;;;;;5055443;28;20074;-54
2022/05/10 06:06:49;;;;;;;6.15;5.38;;;19.50;99.90;;;;;;5055780;28;20064;-52
2022/05/10 06:09:14;;;;;;;5.90;4.50;;;19.80;99.90;;;;;;5055234;28;20033;-52
2022/05/10 06:11:41;;;;;;;8.93;4.40;;;20.60;99.90;;;;;;5054387;28;20051;-52
2022/05/10 06:14:07;;;;;;;7.90;4.50;;;21.20;99.90;;;;;;5054191;28;20036;-53
2022/05/10 06:16:34;;;;;;;6.93;4.35;;;21.90;99.90;;;;;;5054587;28;20032;-50
2022/05/10 06:18:59;;;;;;;9.38;4.93;;;22.60;99.90;;;;;;5054115;28;20028;-52
2022/05/10 06:21:25;;;;;;;10.45;6.03;;;23.30;99.90;;;;;;5055718;28;20029;-53
2022/05/10 06:23:52;;;;;;;11.25;5.90;;;23.30;99.90;;;;;;5054572;28;20028;-51
2022/05/10 06:26:17;;;;;;;8.32;5.47;;;23.10;99.90;;;;;;5055348;28;20020;-52
2022/05/10 06:28:43;;;;;;;8.73;5.40;;;23.00;99.90;;;;;;5054311;28;20028;-51
2022/05/10 06:31:10;;;;;;;6.43;4.65;;;23.10;99.90;;;;;;5054044;28;20048;-54
2022/05/10 06:33:36;;;;;;;12.13;6.20;;;23.50;99.90;;;;;;5053956;28;20036;-55
2022/05/10 06:36:02;;;;;;;10.25;6.45;;;23.80;99.90;;;;;;5053905;28;20433;-54
2022/05/10 06:38:28;;;;;;;6.78;5.55;;;23.80;99.90;;;;;;5054997;28;20064;-53
2022/05/10 06:40:56;;;;;;;9.85;5.82;;;23.90;99.90;;;;;;5054152;28;20029;-54
2022/05/10 06:43:22;;;;;;;7.22;5.78;;;24.10;99.90;;;;;;5054460;28;20025;-55
2022/05/10 06:45:48;;;;;;;14.73;6.65;;;24.10;99.90;;;;;;5053458;28;20029;-51
2022/05/10 06:48:14;;;;;;;8.13;6.28;;;24.00;99.90;;;;;;5055019;28;20127;-56
2022/05/10 06:50:41;;;;;;;10.85;6.25;;;24.00;99.90;;;;;;5054836;28;20033;-53
2022/05/10 06:53:07;;;;;;;12.43;6.97;;;23.70;99.90;;;;;;5053613;28;20075;-51
2022/05/10 06:55:34;;;;;;;19.17;7.57;;;23.80;99.90;;;;;;5053780;28;20048;-55
2022/05/10 06:58:01;;;;;;;8.98;7.03;;;23.30;99.90;;;;;;5053501;28;20107;-55
2022/05/10 07:00:27;;;;;;;8.43;7.10;;;22.70;99.90;;;;;;5053478;28;20079;-52
2022/05/10 07:02:53;;;;;;;13.95;6.80;;;22.40;99.90;;;;;;5054711;28;20017;-52
2022/05/10 07:05:19;;;;;;;10.25;5.75;;;22.30;99.90;;;;;;5054558;28;20086;-51
2022/05/10 07:07:45;;;;;;;12.65;6.63;;;22.30;99.90;;;;;;5054546;28;20491;-52
2022/05/10 07:10:13;;;;;;;6.72;5.60;;;22.60;99.90;;;;;;5054386;28;20112;-52
2022/05/10 07:12:41;;;;;;;7.88;4.80;;;23.00;99.90;;;;;;5053285;28;20029;-50
2022/05/10 07:15:09;;;;;;;9.55;5.82;;;23.80;99.90;;;;;;5053093;28;20036;-52
2022/05/10 07:17:38;;;;;;;5.93;5.32;;;24.70;99.90;;;;;;5054280;28;20029;-51
2022/05/10 07:20:05;;;;;;;9.13;5.00;;;25.40;99.90;;;;;;5053692;28;20021;-53
2022/05/10 07:22:31;;;;;;;5.35;4.65;;;26.20;99.90;;;;;;5053464;28;20025;-53
2022/05/10 07:24:56;;;;;;;11.35;6.90;;;26.80;99.90;;;;;;5053035;28;20030;-50
2022/05/10 07:27:22;;;;;;;8.10;6.18;;;27.30;98.50;;;;;;5054301;28;20557;-54
2022/05/10 07:29:47;;;;;;;10.95;7.18;;;27.20;98.10;;;;;;5052972;28;20021;-52
2022/05/10 07:32:14;;;;;;;9.30;6.40;;;26.70;98.70;;;;;;5053319;28;20053;-54
2022/05/10 07:34:41;;;;;;;10.20;6.65;;;26.80;97.80;;;;;;5054127;28;20024;-53
2022/05/10 07:37:07;;;;;;;7.50;4.57;;;27.10;97.40;;;;;;5053019;28;20021;-51
2022/05/10 07:39:32;;;;;;;7.07;5.38;;;27.80;97.10;;;;;;5052818;28;20112;-55
2022/05/10 07:42:01;;;;;;;7.07;5.25;;;28.90;94.70;;;;;;5052564;28;20036;-54
2022/05/10 07:44:26;;;;;;;9.48;5.97;;;29.50;94.30;;;;;;5054148;28;20025;-50
2022/05/10 07:46:52;;;;;;;10.20;5.82;;;29.50;92.20;;;;;;5052680;28;20075;-50
2022/05/10 07:49:18;;;;;;;11.93;6.20;;;30.20;91.70;;;;;;5053729;28;20025;-50
2022/05/10 07:51:43;;;;;;;6.57;5.15;;;30.90;90.80;;;;;;5053745;28;20534;-50
2022/05/10 07:54:09;;;;;;;7.88;4.70;;;30.90;90.20;;;;;;5052434;28;20025;-51
2022/05/10 07:56:35;;;;;;;10.80;5.88;;;31.80;87.60;;;;;;5053186;28;20029;-51
2022/05/10 07:59:01;;;;;;;5.10;3.75;;;32.00;84.00;;;;;;5052493;28;20025;-50
2022/05/10 08:01:27;;;;;;;5.55;3.78;;;32.30;82.90;;;;;;5053881;28;20047;-49
2022/05/10 08:03:53;;;;;;;7.38;4.43;;;31.80;83.00;;;;;;5052590;28;20085;-50
2022/05/10 08:06:20;;;;;;;5.53;4.20;;;32.10;78.90;;;;;;5052524;28;20025;-50
2022/05/10 08:08:46;;;;;;;7.72;4.10;;;33.20;78.50;;;;;;5053220;28;20051;-51
2022/05/10 08:11:12;;;;;;;6.82;3.85;;;33.20;74.00;;;;;;5053725;28;20102;-51
2022/05/10 08:13:38;;;;;;;6.22;3.78;;;33.00;72.30;;;;;;5052142;28;20029;-50
2022/05/10 08:16:07;;;;;;;8.60;4.63;;;32.60;73.80;;;;;;5053467;28;20049;-49
2022/05/10 08:18:34;;;;;;;8.38;4.20;;;33.20;71.20;;;;;;5052117;28;20021;-52
2022/05/10 08:21:00;;;;;;;9.63;4.38;;;33.40;71.70;;;;;;5052169;28;20032;-50
2022/05/10 08:23:29;;;;;;;9.38;4.80;;;32.90;72.00;;;;;;5053330;28;20021;-54
2022/05/10 08:25:58;;;;;;;7.13;4.10;;;31.00;73.40;;;;;;5052094;28;20098;-54
2022/05/10 08:28:25;;;;;;;9.15;3.92;;;29.70;77.30;;;;;;5052075;28;20029;-50
2022/05/10 08:30:52;;;;;;;9.55;4.40;;;28.30;79.30;;;;;;5052402;28;20029;-51
2022/05/10 08:33:30;;;;;;;17.10;4.97;;;27.10;81.50;;;;;;5052806;28;20025;-52
2022/05/10 08:35:57;;;;;;;11.40;4.90;;;26.80;84.60;;;;;;5051934;28;20032;-51
2022/05/10 08:38:23;;;;;;;9.82;5.00;;;26.10;85.20;;;;;;5053187;28;20071;-53
2022/05/10 08:41:08;;;;;;;10.02;5.15;;;25.60;87.60;;;;;;5051917;28;20025;-49
2022/05/10 08:44:08;;;;;;;9.18;3.90;;;25.30;89.60;;;;;;5053197;28;20116;-49
2022/05/10 08:46:41;;;;;;;12.50;5.28;;;25.10;90.80;;;;;;5030124;28;20029;-50
2022/05/10 08:49:13;;;;;;;6.93;4.10;;;25.40;91.20;;;;;;5051825;28;20112;-50
2022/05/10 08:51:39;;;;;;;9.32;4.85;;;26.00;91.20;;;;;;5051926;28;20021;-49
2022/05/10 08:54:04;;;;;;;6.60;5.00;;;26.60;90.80;;;;;;5053367;28;20079;-51
2022/05/10 08:56:46;;;;;;;5.82;4.47;;;26.90;88.50;;;;;;5053435;28;20383;-53
2022/05/10 08:59:24;;;;;;;5.32;3.88;;;27.20;89.20;;;;;;5053017;28;20059;-49
2022/05/10 09:02:01;;;;;;;3.88;3.28;;;28.20;87.50;;;;;;5052317;28;20025;-49
2022/05/10 09:04:48;;;;;;;6.95;3.83;;;29.70;83.70;;;;;;5053001;28;20021;-50
2022/05/10 09:07:32;;;;;;;8.82;3.33;;;30.90;80.20;;;;;;5051652;28;20534;-55
2022/05/10 09:10:18;;;;;;;5.82;4.15;;;31.80;78.00;;;;;;5055134;28;20086;-58
2022/05/10 09:13:04;;;;;;;8.60;4.00;;;32.80;75.70;;;;;;5055607;28;20110;-51
2022/05/10 09:15:35;;;;;;;10.10;4.40;;;33.90;74.60;;;;;;5055719;28;20032;-53
2022/05/10 09:18:16;;;;;;;4.75;4.00;;;33.80;74.70;;;;;;5056576;28;20025;-55
2022/05/10 09:20:56;;;;;;;4.03;2.97;;;33.10;74.80;;;;;;5055652;28;20025;-52
2022/05/10 09:23:37;;;;;;;6.25;3.83;;;34.10;73.00;;;;;;5056130;28;20021;-55
2022/05/10 09:26:03;;;;;;;6.47;3.17;;;34.50;71.10;;;;;;5055260;28;20028;-54
2022/05/10 09:28:33;;;;;;;4.85;3.00;;;35.00;69.80;;;;;;5055179;28;20021;-56
2022/05/10 09:37:13;;;;;;;3.38;3.00;;;35.10;68.30;;;;;;5056566;28;20094;-57
2022/05/10 09:39:49;;;;;;;9.80;4.95;;;35.50;66.20;;;;;;5055011;28;20112;-55
2022/05/10 09:42:33;;;;;;;6.18;4.85;;;35.10;67.00;;;;;;5055097;28;20024;-54
2022/05/10 09:45:22;;;;;;;5.18;4.18;;;34.20;66.10;;;;;;5054976;28;20029;-57
2022/05/10 09:48:02;;;;;;;4.72;3.25;;;33.30;68.50;;;;;;5056072;28;20048;-55
2022/05/10 09:50:39;;;;;;;4.60;4.00;;;33.50;69.70;;;;;;5056013;28;20044;-54
2022/05/10 09:53:25;;;;;;;5.93;3.63;;;33.90;69.30;;;;;;5055482;28;20346;-52
2022/05/10 09:56:08;;;;;;;6.03;3.88;;;33.80;68.70;;;;;;5054821;28;20024;-52
2022/05/10 09:58:41;;;;;;;7.50;4.10;;;34.70;68.60;;;;;;5054760;28;20050;-53
2022/05/10 10:01:15;;;;;;;6.80;4.32;;;34.90;67.50;;;;;;5054609;28;20021;-54
2022/05/10 10:03:43;;;;;;;5.88;3.65;;;35.00;68.00;;;;;;5054997;28;20059;-50
2022/05/10 10:06:24;;;;;;;4.53;3.67;;;34.40;67.60;;;;;;5056099;28;20467;-51
2022/05/10 10:08:51;;;;;;;5.43;4.15;;;35.00;65.80;;;;;;5056377;28;20035;-53
2022/05/10 10:11:39;;;;;;;4.93;4.43;;;33.80;67.50;;;;;;5054773;28;20127;-51
2022/05/10 10:14:08;;;;;;;12.27;4.70;;;33.20;68.10;;;;;;5055635;28;20188;-56
2022/05/10 10:16:52;;;;;;;6.25;5.15;;;31.80;69.80;;;;;;5054908;28;20120;-57
2022/05/10 10:19:21;;;;;;;10.00;5.03;;;30.20;72.40;;;;;;5055581;28;20104;-56
2022/05/10 10:22:01;;;;;;;11.18;4.40;;;29.40;74.70;;;;;;5053974;28;20032;-55
2022/05/10 10:24:54;;;;;;;7.50;5.10;;;28.90;78.70;;;;;;5055851;28;20172;-52
2022/05/10 10:27:37;;;;;;;7.90;5.18;;;28.10;78.70;;;;;;5054234;28;20475;-51
2022/05/10 10:30:35;;;;;;;5.75;4.43;;;27.60;82.40;;;;;;5054199;28;20049;-55
2022/05/10 10:33:29;;;;;;;13.35;5.32;;;28.20;81.20;;;;;;5053151;28;20029;-53
2022/05/10 10:36:02;;;;;;;12.30;5.97;;;28.10;79.90;;;;;;5054275;28;20031;-56
2022/05/10 10:38:52;;;;;;;8.80;4.85;;;28.10;81.80;;;;;;5053969;28;20024;-51
2022/05/10 10:41:49;;;;;;;5.05;4.53;;;27.70;83.50;;;;;;5055406;28;20100;-52
2022/05/10 10:44:25;;;;;;;6.40;4.85;;;27.80;80.90;;;;;;5054121;28;20025;-50
2022/05/10 10:47:09;;;;;;;6.50;4.70;;;27.50;82.40;;;;;;5054001;28;20082;-53
2022/05/10 10:49:46;;;;;;;8.27;5.07;;;26.90;84.20;;;;;;5055382;28;20491;-52
2022/05/10 10:52:13;;;;;;;6.15;4.32;;;26.80;83.90;;;;;;5055344;28;20029;-53
2022/05/10 10:54:39;;;;;;;8.32;4.47;;;27.10;83.90;;;;;;5053647;28;20021;-56
2022/05/10 10:57:20;;;;;;;8.07;4.70;;;27.60;83.70;;;;;;5053731;28;20123;-54
2022/05/10 10:59:48;;;;;;;5.97;5.30;;;27.50;85.80;;;;;;5053698;28;20025;-55
2022/05/10 11:02:35;;;;;;;6.45;4.93;;;27.20;86.80;;;;;;5053458;28;20032;-51
2022/05/10 11:05:24;;;;;;;6.80;4.68;;;26.80;87.30;;;;;;5055086;28;20070;-56
2022/05/10 11:07:53;;;;;;;6.93;3.97;;;26.60;87.30;;;;;;5054890;28;20017;-53
2022/05/10 11:10:23;;;;;;;10.70;5.82;;;26.70;87.80;;;;;;5054692;28;20017;-50
2022/05/10 11:13:17;;;;;;;7.47;4.77;;;26.40;89.50;;;;;;5054650;28;20025;-51
2022/05/10 11:16:15;;;;;;;7.28;4.97;;;26.50;88.50;;;;;;5054457;28;20307;-54
2022/05/10 11:18:53;;;;;;;9.63;5.22;;;26.40;88.20;;;;;;5053374;28;20023;-54
2022/05/10 11:21:34;;;;;;;8.45;5.20;;;26.40;88.90;;;;;;5054040;28;20064;-55
2022/05/10 11:24:33;;;;;;;8.50;5.60;;;26.10;90.00;;;;;;5053513;28;20021;-52
2022/05/10 11:27:13;;;;;;;8.55;6.07;;;25.80;89.40;;;;;;5053119;28;20029;-54
2022/05/10 11:29:45;;;;;;;7.95;5.32;;;25.50;89.10;;;;;;5054573;28;20025;-52
2022/05/10 11:32:13;;;;;;;13.32;5.60;;;25.30;89.40;;;;;;5053522;28;20025;-50
2022/05/10 11:35:16;;;;;;;9.25;5.93;;;25.30;89.90;;;;;;5052938;28;20028;-53
2022/05/10 11:38:13;;;;;;;8.93;5.85;;;25.20;90.30;;;;;;5053112;28;20057;-50
2022/05/10 11:41:05;;;;;;;11.93;6.00;;;25.20;90.30;;;;;;5052698;28;20544;-51
2022/05/10 11:43:31;;;;;;;10.63;6.28;;;25.00;90.90;;;;;;5054148;28;20056;-50
2022/05/10 11:46:15;;;;;;;9.88;6.22;;;24.90;90.90;;;;;;5052658;28;20052;-51
2022/05/10 11:48:53;;;;;;;9.30;5.80;;;24.90;91.50;;;;;;5054090;28;20096;-54
2022/05/10 11:51:38;;;;;;;12.45;6.15;;;25.10;91.20;;;;;;5052546;28;20025;-52
2022/05/10 11:54:28;;;;;;;10.27;5.45;;;25.20;91.60;;;;;;5052592;28;20025;-50
2022/05/10 11:56:55;;;;;;;10.93;4.75;;;25.10;91.20;;;;;;5052412;28;20025;-52
2022/05/10 11:59:32;;;;;;;10.02;4.90;;;24.90;91.30;;;;;;5052400;28;20036;-50
2022/05/10 12:02:00;;;;;;;7.65;4.57;;;25.10;91.80;;;;;;5052350;28;20017;-55
2022/05/10 12:04:33;;;;;;;7.65;4.05;;;25.40;91.20;;;;;;5052465;28;20403;-52
2022/05/10 12:07:25;;;;;;;6.18;4.75;;;25.70;90.80;;;;;;5052376;28;20052;-51
2022/05/10 12:09:57;;;;;;;9.00;5.55;;;25.90;90.90;;;;;;5049248;28;20037;-51
2022/05/10 12:12:32;;;;;;;10.50;5.05;;;25.80;90.70;;;;;;5052845;28;20025;-52
2022/05/10 12:21:29;;;;;;;15.90;6.28;;;25.60;90.20;;;;;;5053650;28;20086;-58
2022/05/10 12:24:02;;;;;;;8.70;5.72;;;25.20;91.20;;;;;;5053088;28;20480;-59
2022/05/10 12:26:38;;;;;;;6.75;4.65;;;24.90;91.80;;;;;;5052097;28;20029;-59
2022/05/10 12:29:35;;;;;;;8.48;4.70;;;24.90;91.40;;;;;;5052148;28;20032;-59
2022/05/10 12:32:23;;;;;;;9.02;4.68;;;25.10;91.40;;;;;;5036437;28;20052;-58
2022/05/10 12:34:56;;;;;;;7.68;4.25;;;25.50;91.60;;;;;;5052100;28;20372;-59
2022/05/10 12:37:33;;;;;;;7.93;4.30;;;25.70;91.50;;;;;;5053354;28;20017;-60
2022/05/10 12:40:09;;;;;;;7.65;4.40;;;26.00;90.30;;;;;;5051844;28;20148;-60
2022/05/10 12:43:10;;;;;;;7.32;4.93;;;26.30;90.30;;;;;;5051970;28;20112;-59
2022/05/10 12:46:01;;;;;;;5.57;4.57;;;26.10;90.90;;;;;;5048065;28;20040;-59
2022/05/10 12:48:43;;;;;;;5.63;4.22;;;26.40;90.60;;;;;;5057587;28;20078;-59
2022/05/10 12:51:43;;;;;;;11.05;4.03;;;26.50;90.80;;;;;;5057181;28;20060;-59
2022/05/10 12:54:21;;;;;;;5.07;4.40;;;26.80;90.40;;;;;;5056248;28;20025;-58
2022/05/10 12:57:06;;;;;;;4.68;3.67;;;27.00;89.20;;;;;;5056026;28;20056;-59
2022/05/10 12:59:55;;;;;;;9.60;3.95;;;27.10;88.90;;;;;;5056445;28;20028;-59
2022/05/10 13:02:22;;;;;;;6.22;4.43;;;27.20;89.10;;;;;;5057153;28;20048;-59
2022/05/10 13:04:53;;;;;;;5.43;4.57;;;27.20;88.70;;;;;;5055693;28;20105;-62
2022/05/10 13:07:42;;;;;;;8.50;3.80;;;27.20;89.10;;;;;;5056560;28;20366;-60
2022/05/10 13:10:14;;;;;;;8.15;5.15;;;27.30;88.00;;;;;;5049371;28;20041;-56
2022/05/10 13:12:53;;;;;;;4.78;4.20;;;27.40;88.70;;;;;;5055987;28;20097;-58
2022/05/10 13:15:22;;;;;;;7.07;4.32;;;27.40;87.00;;;;;;5056773;28;20029;-59
2022/05/10 13:17:51;;;;;;;6.95;4.00;;;27.30;87.50;;;;;;5057330;28;20025;-59
2022/05/10 13:20:23;;;;;;;4.95;3.90;;;27.30;87.20;;;;;;5055720;28;20040;-59
2022/05/10 13:22:56;;;;;;;4.78;3.72;;;27.10;83.40;;;;;;5055426;28;20021;-59
2022/05/10 13:25:41;;;;;;;4.43;3.78;;;27.00;84.70;;;;;;5057485;28;20024;-60
2022/05/10 13:28:19;;;;;;;4.95;3.63;;;27.00;85.00;;;;;;5055595;28;20057;-60
2022/05/10 13:30:52;;;;;;;5.25;3.78;;;27.10;87.40;;;;;;5056385;28;20035;-58
2022/05/10 13:33:24;;;;;;;8.07;4.32;;;27.10;87.10;;;;;;5056493;28;20039;-58
2022/05/10 13:35:53;;;;;;;9.30;4.18;;;27.10;86.80;;;;;;5056586;28;20575;-59
2022/05/10 13:38:44;;;;;;;4.43;4.03;;;27.20;85.50;;;;;;5055086;28;20025;-59